Time;durP1;ratioP1;P1;durP2;ratioP2;P2;SDS_P1;SDS_P2;PMS_P1;PMS_P2;Temp;Humidity;BMP_temperature;BMP_pressure;BME280_temperature;BME280_humidity;BME280_pressure;Samples;Min_cycle;Max_cycle;Signal;HPM_P1;HPM_P2
2023/02/28 00:01:30;;;;;;;6.93;5.10;;;;;;;4.20;61.49;96837.50;5064996;28;20084;-49
2023/02/28 00:04:00;;;;;;;7.03;5.60;;;;;;;3.99;62.66;96838.81;5058600;28;20064;-45
2023/02/28 00:06:28;;;;;;;7.23;5.30;;;;;;;3.92;65.38;96842.72;5066602;28;20080;-46
2023/02/28 00:08:57;;;;;;;5.47;4.55;;;;;;;4.24;63.09;96832.91;5065427;28;21232;-48
2023/02/28 00:11:25;;;;;;;6.03;5.20;;;;;;;3.89;63.44;96835.94;5066757;28;20508;-49
2023/02/28 00:13:53;;;;;;;5.78;4.05;;;;;;;4.22;64.49;96834.78;5067452;28;20083;-49
2023/02/28 00:16:23;;;;;;;7.55;4.88;;;;;;;3.70;64.37;96840.59;5068018;28;20084;-50
2023/02/28 00:18:51;;;;;;;6.35;4.65;;;;;;;4.25;62.60;96835.41;5069350;28;20076;-52
2023/02/28 00:21:21;;;;;;;5.60;4.47;;;;;;;3.83;63.64;96825.06;5066392;28;20533;-52
2023/02/28 00:23:50;;;;;;;9.48;5.03;;;;;;;3.77;63.67;96831.47;5067035;28;20063;-45
2023/02/28 00:26:18;;;;;;;6.25;4.25;;;;;;;4.09;62.03;96823.41;5065326;28;20092;-48
2023/02/28 00:28:49;;;;;;;6.82;4.40;;;;;;;4.13;62.90;96823.16;5067646;28;20072;-50
2023/02/28 00:31:17;;;;;;;5.70;4.43;;;;;;;3.93;63.14;96829.59;5067040;28;20091;-44
2023/02/28 00:33:45;;;;;;;5.55;4.88;;;;;;;3.98;62.91;96821.47;5067753;28;20105;-44
2023/02/28 00:36:14;;;;;;;5.28;4.32;;;;;;;3.83;63.65;96818.06;5065968;28;20088;-45
2023/02/28 00:38:43;;;;;;;5.97;4.60;;;;;;;4.47;62.49;96815.78;5062712;28;20529;-46
2023/02/28 00:41:12;;;;;;;7.23;5.67;;;;;;;4.41;61.71;96817.03;5064548;28;20076;-48
2023/02/28 00:43:40;;;;;;;6.60;5.03;;;;;;;4.14;62.35;96824.81;5067127;28;20890;-44
2023/02/28 00:46:09;;;;;;;7.38;4.70;;;;;;;3.95;60.82;96822.50;5064143;28;20091;-45
2023/02/28 00:48:37;;;;;;;8.20;5.03;;;;;;;4.02;64.96;96831.63;5068280;28;20082;-46
2023/02/28 00:51:06;;;;;;;5.93;4.47;;;;;;;4.41;62.75;96816.19;5066921;28;20126;-47
2023/02/28 00:53:34;;;;;;;11.85;4.50;;;;;;;3.90;65.27;96816.75;5066910;28;20775;-50
2023/02/28 00:56:04;;;;;;;5.82;4.28;;;;;;;3.84;66.63;96822.34;5067460;28;20087;-53
2023/02/28 00:58:32;;;;;;;7.00;4.55;;;;;;;3.96;67.04;96821.59;5064061;28;20090;-43
2023/02/28 01:01:01;;;;;;;6.95;4.75;;;;;;;3.99;66.09;96820.53;5065350;28;20106;-46
2023/02/28 01:03:29;;;;;;;5.28;4.30;;;;;;;4.15;64.99;96817.81;5064787;28;20087;-48
2023/02/28 01:05:58;;;;;;;5.13;3.13;;;;;;;3.78;65.73;96810.50;5064067;28;20087;-48
2023/02/28 01:08:26;;;;;;;9.65;4.97;;;;;;;3.85;66.29;96813.56;5065699;28;20643;-44
2023/02/28 01:10:55;;;;;;;5.68;4.45;;;;;;;3.44;69.32;96816.09;5064369;28;20201;-45
2023/02/28 01:13:25;;;;;;;5.65;4.57;;;;;;;3.45;68.05;96818.63;5065004;28;20076;-43
2023/02/28 01:15:55;;;;;;;7.18;5.60;;;;;;;3.54;67.94;96818.06;5064959;28;20080;-43
2023/02/28 01:18:24;;;;;;;8.27;6.03;;;;;;;3.60;66.24;96816.00;5066227;28;20083;-46
2023/02/28 01:20:52;;;;;;;5.88;3.90;;;;;;;3.82;64.54;96811.16;5063373;28;20087;-43
2023/02/28 01:23:21;;;;;;;4.93;4.35;;;;;;;3.68;65.26;96808.53;5067429;28;20099;-48
2023/02/28 01:25:49;;;;;;;6.82;5.38;;;;;;;3.77;65.11;96802.78;5065989;28;20076;-49
2023/02/28 01:28:18;;;;;;;7.63;5.90;;;;;;;4.07;63.60;96804.44;5065972;28;20072;-46
2023/02/28 01:30:50;;;;;;;6.53;5.13;;;;;;;3.94;64.43;96810.41;5061322;28;20084;-45
2023/02/28 01:33:18;;;;;;;8.73;5.45;;;;;;;4.06;64.54;96798.38;5066349;28;20091;-48
2023/02/28 01:35:46;;;;;;;5.38;4.80;;;;;;;4.25;63.64;96793.66;5066567;28;20080;-44
2023/02/28 01:38:15;;;;;;;5.15;4.57;;;;;;;4.18;63.73;96796.75;5062889;28;20088;-45
2023/02/28 01:40:50;;;;;;;8.02;6.28;;;;;;;3.73;66.17;96793.47;5066308;28;20103;-46
2023/02/28 01:43:22;;;;;;;6.50;5.35;;;;;;;3.95;64.55;96791.19;5067179;28;20084;-49
2023/02/28 01:45:53;;;;;;;7.03;5.60;;;;;;;3.95;65.26;96791.19;5065332;28;20080;-49
2023/02/28 01:48:25;;;;;;;8.48;6.13;;;;;;;3.86;66.52;96791.78;5063706;28;20102;-48
2023/02/28 01:50:55;;;;;;;6.57;5.38;;;;;;;3.74;68.25;96788.16;5064293;28;20084;-45
2023/02/28 01:53:27;;;;;;;6.75;5.70;;;;;;;3.33;71.09;96794.09;5066404;28;20091;-47
2023/02/28 01:55:56;;;;;;;7.13;5.50;;;;;;;3.67;68.84;96788.63;5064260;28;20076;-47
2023/02/28 01:58:25;;;;;;;7.65;5.57;;;;;;;4.00;67.67;96785.72;5066503;28;20589;-50
2023/02/28 02:00:54;;;;;;;7.68;5.15;;;;;;;3.76;68.21;96781.06;5061587;28;20064;-50
2023/02/28 02:03:22;;;;;;;7.50;5.30;;;;;;;3.50;70.07;96777.44;5065182;28;20103;-45
2023/02/28 02:05:51;;;;;;;7.65;5.70;;;;;;;3.55;71.19;96785.00;5065360;28;20490;-52
2023/02/28 02:08:21;;;;;;;8.43;5.72;;;;;;;3.79;71.08;96780.88;5060335;28;20620;-54
2023/02/28 02:10:53;;;;;;;7.40;5.22;;;;;;;3.80;69.30;96779.13;5064831;28;20087;-53
2023/02/28 02:13:35;;;;;;;7.43;5.93;;;;;;;3.59;71.29;96783.88;5065645;28;20055;-50
2023/02/28 02:16:14;;;;;;;7.72;5.22;;;;;;;3.77;69.26;96787.97;5065215;28;20072;-47
2023/02/28 02:18:46;;;;;;;5.72;4.80;;;;;;;3.89;71.49;96777.69;5064927;28;20528;-44
2023/02/28 02:21:40;;;;;;;9.30;6.07;;;;;;;3.70;71.46;96778.84;5064837;28;20100;-51
2023/02/28 02:24:47;;;;;;;7.40;6.22;;;;;;;3.52;71.83;96785.19;5064971;28;20080;-45
2023/02/28 02:27:30;;;;;;;8.10;5.22;;;;;;;3.48;73.83;96783.72;5056888;28;20080;-45
2023/02/28 02:30:30;;;;;;;8.38;6.50;;;;;;;3.86;71.35;96783.13;5065684;28;20083;-50
2023/02/28 02:33:30;;;;;;;9.10;6.57;;;;;;;3.54;71.76;96778.09;5067574;28;20080;-44
2023/02/28 02:36:03;;;;;;;7.00;6.18;;;;;;;3.59;72.37;96778.66;5064066;28;20072;-45
2023/02/28 02:38:35;;;;;;;8.70;6.20;;;;;;;3.47;69.15;96785.44;5068231;28;20076;-45
2023/02/28 02:41:09;;;;;;;7.40;6.00;;;;;;;4.16;67.84;96775.94;5063970;28;20081;-48
2023/02/28 02:43:42;;;;;;;9.52;6.82;;;;;;;3.60;72.72;96782.09;5069315;28;20095;-43
2023/02/28 02:46:15;;;;;;;12.38;6.90;;;;;;;3.91;71.44;96778.44;5066664;28;20072;-46
2023/02/28 02:48:45;;;;;;;8.90;6.32;;;;;;;4.11;70.55;96778.03;5066335;28;20552;-51
2023/02/28 02:51:17;;;;;;;9.48;7.00;;;;;;;4.00;68.93;96777.88;5067262;28;20083;-45
2023/02/28 02:53:50;;;;;;;10.32;6.90;;;;;;;4.25;70.18;96780.59;5070406;28;20802;-47
2023/02/28 02:56:19;;;;;;;9.05;6.93;;;;;;;3.85;70.94;96773.59;5069083;28;20526;-47
2023/02/28 02:58:50;;;;;;;8.57;6.57;;;;;;;3.65;73.76;96778.31;5067656;28;20080;-46
2023/02/28 03:01:27;;;;;;;8.93;7.05;;;;;;;3.94;73.17;96778.25;5068323;28;20449;-47
2023/02/28 03:03:58;;;;;;;8.05;6.07;;;;;;;3.78;74.03;96787.03;5070328;28;20091;-45
2023/02/28 03:06:28;;;;;;;7.00;5.70;;;;;;;3.69;75.11;96784.16;5067099;28;20099;-45
2023/02/28 03:08:56;;;;;;;9.40;6.25;;;;;;;4.00;72.80;96778.72;5068689;28;20080;-49
2023/02/28 03:11:24;;;;;;;8.75;6.65;;;;;;;4.07;73.81;96780.94;5067954;28;20562;-51
2023/02/28 03:13:59;;;;;;;9.75;7.15;;;;;;;3.80;72.91;96785.16;5068309;28;20080;-45
2023/02/28 03:16:37;;;;;;;10.73;6.70;;;;;;;3.98;74.59;96772.75;5068547;28;20084;-48
2023/02/28 03:19:21;;;;;;;8.32;6.45;;;;;;;3.73;72.60;96776.03;5067883;28;20076;-45
2023/02/28 03:22:00;;;;;;;10.32;7.60;;;;;;;4.11;74.24;96779.81;5068915;28;20080;-43
2023/02/28 03:24:32;;;;;;;9.40;6.65;;;;;;;4.00;72.21;96770.88;5068144;28;20083;-46
2023/02/28 03:27:06;;;;;;;9.00;6.45;;;;;;;4.25;74.68;96780.59;5061683;28;20825;-44
2023/02/28 03:29:35;;;;;;;11.15;7.15;;;;;;;4.08;71.86;96775.63;5069174;28;20084;-44
2023/02/28 03:32:11;;;;;;;7.05;5.53;;;;;;;4.30;71.67;96762.03;5067832;28;20083;-46
2023/02/28 03:34:42;;;;;;;11.05;7.78;;;;;;;3.72;78.79;96770.94;5067824;28;20088;-48
2023/02/28 03:37:14;;;;;;;10.05;6.85;;;;;;;3.88;78.50;96762.97;5066279;28;20088;-47
2023/02/28 03:39:45;;;;;;;9.45;7.40;;;;;;;3.93;77.59;96767.00;5068077;28;20084;-46
2023/02/28 03:42:15;;;;;;;11.70;9.15;;;;;;;3.40;81.75;96778.94;5067416;28;20736;-51
2023/02/28 03:44:45;;;;;;;7.93;5.93;;;;;;;3.99;77.15;96779.66;5069669;28;20060;-46
2023/02/28 03:47:17;;;;;;;12.90;8.98;;;;;;;3.73;76.34;96777.81;5064717;28;20087;-45
2023/02/28 03:49:48;;;;;;;11.00;7.55;;;;;;;3.74;77.30;96779.50;5066188;28;20445;-48
2023/02/28 03:52:19;;;;;;;10.02;7.32;;;;;;;4.11;76.59;96777.19;5068578;28;20447;-44
2023/02/28 03:54:50;;;;;;;7.72;6.32;;;;;;;4.01;73.84;96787.38;5059334;28;20430;-47
2023/02/28 03:57:25;;;;;;;8.60;7.53;;;;;;;3.79;75.09;96787.88;5068880;28;20072;-45
2023/02/28 03:59:58;;;;;;;9.88;7.32;;;;;;;4.07;71.04;96787.00;5062480;28;20080;-46
2023/02/28 04:02:26;;;;;;;9.82;7.20;;;;;;;4.14;73.03;96787.44;5067701;28;20114;-47
2023/02/28 04:04:54;;;;;;;10.07;7.65;;;;;;;3.88;75.49;96789.06;5068219;28;20111;-50
2023/02/28 04:07:24;;;;;;;10.48;8.10;;;;;;;3.86;80.69;96794.41;5065639;28;20067;-48
2023/02/28 04:09:53;;;;;;;8.27;6.57;;;;;;;4.25;73.70;96791.03;5068244;28;20076;-45
2023/02/28 04:12:22;;;;;;;11.10;7.35;;;;;;;3.47;78.71;96795.88;5066614;28;20094;-46
2023/02/28 04:14:51;;;;;;;9.32;7.05;;;;;;;4.08;73.53;96793.03;5067378;28;20080;-50
2023/02/28 04:17:19;;;;;;;10.93;7.28;;;;;;;3.93;73.43;96794.84;5067550;28;20350;-46
2023/02/28 04:19:47;;;;;;;10.07;7.53;;;;;;;4.40;70.44;96791.00;5067886;28;20037;-44
2023/02/28 04:22:17;;;;;;;13.23;9.75;;;;;;;3.48;75.32;96812.38;5067372;28;20498;-49
2023/02/28 04:24:46;;;;;;;13.60;8.80;;;;;;;3.76;76.23;96799.34;5067972;28;20085;-46
2023/02/28 04:27:15;;;;;;;8.75;6.57;;;;;;;3.98;76.82;96793.63;5066789;28;20072;-44
2023/02/28 04:29:44;;;;;;;14.00;10.35;;;;;;;3.56;79.21;96803.16;5066002;28;20090;-43
2023/02/28 04:32:13;;;;;;;11.50;7.45;;;;;;;3.81;76.02;96807.69;5066472;28;20091;-47
2023/02/28 04:34:41;;;;;;;12.60;8.30;;;;;;;3.71;78.24;96810.97;5061358;28;20088;-47
2023/02/28 04:37:09;;;;;;;10.88;7.40;;;;;;;4.27;74.48;96801.41;5063907;28;20120;-53
2023/02/28 04:39:41;;;;;;;10.05;8.38;;;;;;;4.12;75.44;96804.97;5062149;28;20095;-48
2023/02/28 04:42:12;;;;;;;11.93;7.95;;;;;;;4.15;74.51;96802.16;5060839;28;20750;-47
2023/02/28 04:44:40;;;;;;;11.75;9.13;;;;;;;3.60;76.50;96806.41;5061965;28;20091;-47
2023/02/28 04:47:08;;;;;;;11.65;7.90;;;;;;;3.91;77.59;96809.75;5061270;28;20064;-50
2023/02/28 04:49:37;;;;;;;12.48;8.65;;;;;;;3.84;77.86;96811.91;5064985;28;20091;-50
2023/02/28 04:52:07;;;;;;;12.25;8.27;;;;;;;4.05;75.62;96815.78;5061806;28;20068;-52
2023/02/28 04:54:35;;;;;;;10.57;8.52;;;;;;;3.79;75.75;96816.56;5062919;28;20076;-45
2023/02/28 04:57:04;;;;;;;12.43;8.95;;;;;;;4.01;74.90;96821.28;5058338;28;20082;-50
2023/02/28 04:59:34;;;;;;;11.50;7.60;;;;;;;4.32;69.25;96812.38;5061139;28;20088;-47
2023/02/28 05:02:06;;;;;;;10.30;7.88;;;;;;;3.99;72.86;96820.53;5060259;28;20540;-51
2023/02/28 05:04:35;;;;;;;9.68;8.65;;;;;;;3.45;77.24;96830.81;5059878;28;20088;-48
2023/02/28 05:07:03;;;;;;;11.73;8.30;;;;;;;4.22;72.63;96819.94;5062648;28;20076;-44
2023/02/28 05:09:32;;;;;;;11.27;8.63;;;;;;;4.05;73.71;96825.38;5057645;28;20080;-48
2023/02/28 05:12:01;;;;;;;13.50;9.65;;;;;;;3.86;77.02;96820.47;5062172;28;20090;-49
2023/02/28 05:14:29;;;;;;;11.93;8.20;;;;;;;4.00;75.05;96828.28;5060128;28;20076;-49
2023/02/28 05:16:59;;;;;;;13.43;10.50;;;;;;;3.54;78.02;96832.84;5060238;28;20068;-45
2023/02/28 05:19:27;;;;;;;13.90;10.33;;;;;;;4.21;73.38;96827.88;5063277;28;20539;-51
2023/02/28 05:21:56;;;;;;;12.65;8.82;;;;;;;3.54;77.60;96835.47;5066569;28;20513;-46
2023/02/28 05:24:24;;;;;;;12.48;8.98;;;;;;;4.03;75.02;96833.31;5062986;28;20106;-49
2023/02/28 05:26:54;;;;;;;15.13;9.98;;;;;;;3.94;73.61;96838.25;5062051;28;20180;-47
2023/02/28 05:29:22;;;;;;;14.52;8.95;;;;;;;4.55;69.60;96839.66;5064682;28;20075;-49
2023/02/28 05:31:50;;;;;;;10.75;8.60;;;;;;;3.85;73.02;96839.66;5061578;28;20672;-46
2023/02/28 05:34:20;;;;;;;13.45;9.30;;;;;;;3.85;73.82;96831.00;5060241;28;20071;-49
2023/02/28 05:36:49;;;;;;;15.83;9.93;;;;;;;4.22;70.17;96830.38;5065922;28;20579;-48
2023/02/28 05:39:17;;;;;;;12.02;9.70;;;;;;;3.88;72.34;96838.63;5061713;28;20095;-48
2023/02/28 05:41:45;;;;;;;11.35;9.73;;;;;;;3.93;72.12;96842.66;5061826;28;20064;-50
2023/02/28 05:44:13;;;;;;;12.57;9.30;;;;;;;3.35;79.83;96846.16;5060492;28;20088;-46
2023/02/28 05:46:42;;;;;;;11.40;8.98;;;;;;;4.00;75.23;96843.09;5062310;28;20071;-47
2023/02/28 05:49:10;;;;;;;11.05;6.78;;;;;;;3.88;76.65;96844.69;5061932;28;20103;-46
2023/02/28 05:51:40;;;;;;;12.30;8.60;;;;;;;3.81;76.60;96844.22;5062921;28;20068;-43
2023/02/28 05:54:09;;;;;;;17.50;10.20;;;;;;;3.42;77.31;96844.88;5062966;28;20075;-48
2023/02/28 05:56:40;;;;;;;12.27;8.98;;;;;;;3.68;78.65;96842.44;5063026;28;20064;-46
2023/02/28 05:59:08;;;;;;;13.77;9.52;;;;;;;2.99;87.27;96843.91;5062368;28;20076;-43
2023/02/28 06:01:38;;;;;;;13.15;9.25;;;;;;;3.52;82.48;96845.16;5064302;28;20509;-48
2023/02/28 06:04:09;;;;;;;13.57;9.88;;;;;;;3.74;77.60;96848.13;5060294;28;20472;-50
2023/02/28 06:06:54;;;;;;;11.88;9.18;;;;;;;3.51;78.27;96844.31;5063267;28;20072;-47
2023/02/28 06:09:22;;;;;;;14.55;10.10;;;;;;;3.46;77.61;96846.34;5058975;28;20090;-49
2023/02/28 06:11:51;;;;;;;13.25;9.35;;;;;;;3.63;79.02;96847.13;5065588;28;20088;-45
2023/02/28 06:14:20;;;;;;;13.25;9.18;;;;;;;3.65;79.11;96850.47;5063436;28;20631;-46
2023/02/28 06:16:48;;;;;;;13.02;9.85;;;;;;;3.25;83.53;96853.66;5064992;28;20513;-49
2023/02/28 06:19:17;;;;;;;14.75;10.38;;;;;;;3.35;81.19;96847.94;5062419;28;20088;-45
2023/02/28 06:21:45;;;;;;;14.07;10.13;;;;;;;3.42;82.63;96857.91;5062096;28;20458;-48
2023/02/28 06:24:15;;;;;;;11.95;9.68;;;;;;;3.30;78.58;96859.47;5062836;28;20458;-48
2023/02/28 06:26:43;;;;;;;15.73;10.60;;;;;;;3.44;84.38;96863.88;5061939;28;20079;-48
2023/02/28 06:29:12;;;;;;;14.77;9.45;;;;;;;3.97;75.77;96865.00;5077558;28;20064;-44
2023/02/28 06:31:40;;;;;;;12.07;8.20;;;;;;;3.66;77.72;96873.00;5063891;28;20509;-46
2023/02/28 06:34:08;;;;;;;15.90;10.93;;;;;;;3.58;77.78;96878.69;5061396;28;20462;-48
2023/02/28 06:36:37;;;;;;;18.75;10.75;;;;;;;3.81;74.01;96875.53;5059522;28;20080;-48
2023/02/28 06:39:05;;;;;;;15.20;8.93;;;;;;;4.32;75.67;96869.81;5061900;28;20071;-45
2023/02/28 06:41:37;;;;;;;11.27;8.43;;;;;;;3.91;74.83;96883.63;5060757;28;20396;-43
2023/02/28 06:44:22;;;;;;;14.35;9.10;;;;;;;3.93;76.71;96870.50;5062764;28;20087;-47
2023/02/28 06:46:50;;;;;;;14.63;8.75;;;;;;;4.44;72.18;96874.28;5065727;28;20076;-47
2023/02/28 06:49:18;;;;;;;14.07;10.00;;;;;;;4.55;69.97;96880.59;5065128;28;20430;-47
2023/02/28 06:51:47;;;;;;;17.48;10.70;;;;;;;4.89;66.30;96884.50;5060733;28;20072;-45
2023/02/28 06:54:15;;;;;;;17.30;12.48;;;;;;;3.88;70.84;96880.38;5064923;28;20067;-44
2023/02/28 06:56:45;;;;;;;13.73;9.68;;;;;;;4.13;72.70;96882.31;5063441;28;20072;-48
2023/02/28 06:59:13;;;;;;;14.43;9.83;;;;;;;4.43;69.82;96890.03;5063353;28;20604;-48
2023/02/28 07:01:41;;;;;;;14.98;10.25;;;;;;;4.52;70.26;96889.44;5064351;28;20509;-52
2023/02/28 07:04:10;;;;;;;12.93;9.15;;;;;;;4.29;68.12;96891.72;5065358;28;20084;-49
2023/02/28 07:06:38;;;;;;;15.90;10.38;;;;;;;3.90;72.23;96896.78;5065336;28;20084;-46
2023/02/28 07:09:07;;;;;;;15.05;10.32;;;;;;;4.24;70.06;96895.56;5064340;28;20064;-46
2023/02/28 07:11:35;;;;;;;14.38;9.23;;;;;;;4.80;68.59;96893.75;5062677;28;20087;-46
2023/02/28 07:14:04;;;;;;;12.10;7.30;;;;;;;4.57;68.12;96897.00;5064294;28;20076;-49
2023/02/28 07:16:33;;;;;;;13.57;9.30;;;;;;;4.66;70.40;96899.88;5065840;28;20083;-47
2023/02/28 07:19:01;;;;;;;13.65;9.98;;;;;;;4.37;66.09;96899.09;5069778;28;20490;-48
2023/02/28 07:21:29;;;;;;;15.35;9.57;;;;;;;4.99;67.06;96889.03;5067003;28;20076;-50
2023/02/28 07:23:58;;;;;;;15.55;10.75;;;;;;;4.81;66.23;96892.81;5068391;28;20068;-46
2023/02/28 07:26:27;;;;;;;14.98;9.38;;;;;;;4.33;67.10;96897.59;5067940;28;20080;-46
2023/02/28 07:28:55;;;;;;;13.50;8.60;;;;;;;4.50;70.06;96894.75;5067443;28;20060;-46
2023/02/28 07:31:24;;;;;;;15.50;10.80;;;;;;;4.27;69.82;96893.59;5067508;28;20064;-45
2023/02/28 07:33:53;;;;;;;17.17;10.18;;;;;;;4.32;69.82;96897.69;5065826;28;20096;-45
2023/02/28 07:36:22;;;;;;;17.33;10.98;;;;;;;4.84;63.35;96895.22;5065052;28;20454;-46
2023/02/28 07:38:50;;;;;;;13.40;9.48;;;;;;;4.89;67.35;96903.63;5083521;28;20505;-45
2023/02/28 07:41:21;;;;;;;14.75;9.50;;;;;;;5.62;61.53;96891.88;5068815;28;20064;-55
2023/02/28 07:43:49;;;;;;;17.83;10.52;;;;;;;5.31;63.94;96903.53;5067834;28;20083;-47
2023/02/28 07:46:20;;;;;;;15.00;9.48;;;;;;;6.11;59.19;96896.41;5067137;28;20083;-44
2023/02/28 07:48:49;;;;;;;;;;;;;;;5.48;61.47;96898.88;5069661;28;20059;-44
2023/02/28 07:51:18;;;;;;;17.00;10.57;;;;;;;5.34;60.80;96898.94;5068459;28;20397;-44
2023/02/28 07:53:46;;;;;;;18.02;12.90;;;;;;;4.55;64.77;96904.94;5067558;28;20079;-45
2023/02/28 07:56:14;;;;;;;17.58;10.65;;;;;;;5.75;60.13;96897.09;5066088;28;20072;-47
2023/02/28 07:58:42;;;;;;;13.25;9.52;;;;;;;4.89;61.94;96903.63;5068704;28;20076;-46
2023/02/28 08:01:12;;;;;;;17.67;12.20;;;;;;;4.78;59.97;96908.69;5066466;28;20061;-49
2023/02/28 08:03:41;;;;;;;15.57;10.13;;;;;;;4.69;65.78;96904.06;5065395;28;20464;-46
2023/02/28 08:06:17;;;;;;;19.45;11.30;;;;;;;4.94;64.05;96903.31;5066432;28;20091;-45
2023/02/28 08:08:45;;;;;;;14.00;10.70;;;;;;;5.54;61.27;96907.22;5067472;28;20064;-47
2023/02/28 08:11:13;;;;;;;16.25;10.15;;;;;;;5.46;61.34;96910.38;5067756;28;20210;-47
2023/02/28 08:13:43;;;;;;;16.67;11.10;;;;;;;5.07;62.54;96909.44;5068647;28;20056;-49
2023/02/28 08:16:15;;;;;;;13.88;9.60;;;;;;;5.24;61.60;96913.56;5067812;28;20096;-45
2023/02/28 08:18:43;;;;;;;16.23;10.32;;;;;;;5.47;59.20;96912.03;5064328;28;20073;-46
2023/02/28 08:21:13;;;;;;;15.75;9.90;;;;;;;6.16;58.82;96905.63;5062204;28;20081;-43
2023/02/28 08:23:41;;;;;;;13.13;9.40;;;;;;;5.32;59.37;96915.69;5068291;28;20521;-46
2023/02/28 08:26:09;;;;;;;14.43;10.48;;;;;;;4.75;62.65;96920.19;5068328;28;20087;-46
2023/02/28 08:28:38;;;;;;;17.02;11.73;;;;;;;4.76;61.89;96916.63;5064892;28;20094;-46
2023/02/28 08:31:10;;;;;;;13.20;10.38;;;;;;;4.17;63.71;96928.19;5066233;28;20573;-56
2023/02/28 08:33:39;;;;;;;18.08;12.38;;;;;;;4.46;64.85;96919.38;5066566;28;20480;-49
2023/02/28 08:36:09;;;;;;;17.02;11.95;;;;;;;4.43;65.02;96919.56;5065218;28;20076;-45
2023/02/28 08:38:39;;;;;;;15.00;9.67;;;;;;;5.00;62.52;96914.22;5065434;28;20080;-52
2023/02/28 08:41:09;;;;;;;15.75;9.80;;;;;;;5.02;61.83;96916.72;5066967;28;20465;-48
2023/02/28 08:43:38;;;;;;;;;;;;;;;4.83;62.14;96911.84;5065260;28;20543;-44
2023/02/28 08:46:06;;;;;;;15.38;12.63;;;;;;;4.24;65.93;96935.56;5082017;28;19956;-49
2023/02/28 08:48:37;;;;;;;16.83;11.30;;;;;;;5.33;62.45;96915.56;5068268;28;20083;-47
2023/02/28 08:51:08;;;;;;;17.55;10.20;;;;;;;4.90;60.14;96931.44;5063576;28;20076;-46
2023/02/28 08:53:39;;;;;;;16.30;11.75;;;;;;;5.37;58.87;96918.84;5065137;28;20068;-45
2023/02/28 08:56:09;;;;;;;16.83;11.82;;;;;;;5.00;59.35;96922.06;5066130;28;20071;-45
2023/02/28 08:58:37;;;;;;;18.00;12.77;;;;;;;5.35;59.79;96924.16;5060271;28;20080;-46
2023/02/28 09:01:10;;;;;;;15.38;10.05;;;;;;;5.36;59.03;96917.97;5065670;28;20080;-47
2023/02/28 09:03:38;;;;;;;19.60;12.82;;;;;;;4.85;62.40;96925.66;5063501;28;20066;-48
2023/02/28 09:06:07;;;;;;;13.75;9.48;;;;;;;5.40;60.35;96921.22;5067707;28;20536;-47
2023/02/28 09:08:35;;;;;;;11.98;8.40;;;;;;;4.89;62.82;96926.31;5061613;28;20088;-49
2023/02/28 09:11:06;;;;;;;13.88;8.55;;;;;;;4.80;64.67;96934.72;5064165;28;20072;-47
2023/02/28 09:13:34;;;;;;;15.45;9.77;;;;;;;4.99;62.18;96937.84;5062757;28;20080;-43
2023/02/28 09:16:04;;;;;;;18.67;12.23;;;;;;;5.33;60.89;96928.63;5065413;28;20060;-45
2023/02/28 09:18:32;;;;;;;18.80;11.98;;;;;;;5.68;59.31;96930.72;5066307;28;20079;-44
2023/02/28 09:21:04;;;;;;;16.92;11.75;;;;;;;5.32;58.80;96931.38;5062994;28;20056;-52
2023/02/28 09:23:32;;;;;;;15.88;10.45;;;;;;;5.39;57.70;96941.31;5066262;28;20079;-43
2023/02/28 09:26:01;;;;;;;14.18;9.63;;;;;;;5.97;56.71;96926.16;5066852;28;20099;-50
2023/02/28 09:28:30;;;;;;;17.52;10.82;;;;;;;5.33;57.40;96936.47;5064423;28;20080;-50
2023/02/28 09:30:59;;;;;;;16.93;10.77;;;;;;;6.06;55.30;96941.25;5066702;28;20076;-46
2023/02/28 09:33:27;;;;;;;17.65;10.02;;;;;;;5.64;56.12;96944.91;5067269;28;20094;-51
2023/02/28 09:36:00;;;;;;;16.67;11.43;;;;;;;6.74;54.21;96934.72;5065787;28;20525;-48
2023/02/28 09:38:28;;;;;;;16.23;9.98;;;;;;;6.89;53.07;96940.69;5066955;28;20063;-51
2023/02/28 09:41:00;;;;;;;16.15;10.52;;;;;;;7.14;51.95;96937.13;5066954;28;20656;-43
2023/02/28 09:43:32;;;;;;;15.50;10.32;;;;;;;7.30;51.74;96950.78;5063443;28;20072;-48
2023/02/28 09:46:05;;;;;;;15.93;9.63;;;;;;;7.03;51.68;96953.63;5065681;28;20521;-47
2023/02/28 09:48:37;;;;;;;17.55;10.88;;;;;;;6.14;53.67;96961.66;5061685;28;20071;-46
2023/02/28 09:51:15;;;;;;;14.30;10.00;;;;;;;7.47;51.65;96951.34;5061389;28;20532;-49
2023/02/28 09:53:44;;;;;;;14.70;8.75;;;;;;;6.44;52.42;96952.63;5062998;28;20068;-46
2023/02/28 09:56:25;;;;;;;13.82;9.90;;;;;;;6.12;53.57;96958.28;5062847;28;20451;-49
2023/02/28 09:58:58;;;;;;;15.40;10.90;;;;;;;6.29;53.26;96957.13;5066169;28;20080;-46
2023/02/28 10:01:32;;;;;;;14.93;9.75;;;;;;;6.63;52.58;96964.31;5062054;28;20084;-51
2023/02/28 10:04:05;;;;;;;14.07;10.15;;;;;;;6.91;51.36;96957.13;5064035;28;20068;-50
2023/02/28 10:06:39;;;;;;;18.38;10.50;;;;;;;7.60;51.14;96952.09;5066272;28;20099;-51
2023/02/28 10:09:13;;;;;;;13.82;9.27;;;;;;;6.83;51.21;96962.91;5064169;28;20086;-53
2023/02/28 10:11:42;;;;;;;14.70;10.32;;;;;;;6.46;51.98;96959.41;5064326;28;20080;-47
2023/02/28 10:14:15;;;;;;;18.83;9.88;;;;;;;6.74;51.78;96960.09;5065790;28;20075;-47
2023/02/28 10:16:51;;;;;;;16.88;10.57;;;;;;;6.46;53.08;96967.28;5066169;28;20067;-50
2023/02/28 10:19:23;;;;;;;16.63;13.75;;;;;;;6.13;52.86;96968.69;5064234;28;20092;-47
2023/02/28 10:21:56;;;;;;;14.80;10.20;;;;;;;6.44;53.40;96971.81;5066698;28;20076;-51
2023/02/28 10:24:30;;;;;;;15.80;11.18;;;;;;;6.37;53.99;96967.94;5066134;28;20075;-47
2023/02/28 10:27:02;;;;;;;16.00;11.40;;;;;;;6.12;53.71;96966.13;5063097;28;20084;-45
2023/02/28 10:29:33;;;;;;;17.65;11.30;;;;;;;6.44;54.11;96973.59;5065806;28;20072;-51
2023/02/28 10:32:03;;;;;;;16.88;9.95;;;;;;;6.60;53.49;96967.16;5059535;28;20072;-53
2023/02/28 10:34:31;;;;;;;17.20;12.18;;;;;;;6.26;52.86;96968.66;5063365;28;20130;-47
2023/02/28 10:37:07;;;;;;;17.60;9.95;;;;;;;7.04;52.03;96964.94;5065739;28;20083;-45
2023/02/28 10:39:37;;;;;;;16.08;9.77;;;;;;;6.61;52.06;96968.00;5065432;28;20076;-46
2023/02/28 10:42:06;;;;;;;17.50;13.95;;;;;;;6.56;52.58;96970.09;5063680;28;20071;-46
2023/02/28 10:44:36;;;;;;;14.52;9.85;;;;;;;7.18;51.94;96962.16;5064041;28;20549;-47
2023/02/28 10:47:04;;;;;;;15.43;9.87;;;;;;;7.51;50.95;96960.66;5065243;28;20095;-47
2023/02/28 10:49:32;;;;;;;15.68;9.45;;;;;;;6.80;52.59;96962.28;5062506;28;20336;-45
2023/02/28 10:52:01;;;;;;;13.07;9.50;;;;;;;6.70;52.14;96956.03;5068828;28;20068;-47
2023/02/28 10:54:33;;;;;;;15.23;11.52;;;;;;;7.48;50.12;96961.72;5068393;28;20103;-50
2023/02/28 10:57:12;;;;;;;14.75;11.43;;;;;;;7.10;51.45;96975.00;5069695;28;20174;-46
2023/02/28 10:59:44;;;;;;;12.65;8.10;;;;;;;7.67;50.44;96953.31;5067394;28;20087;-46
2023/02/28 11:02:31;;;;;;;16.70;12.20;;;;;;;6.68;51.34;96977.13;5069214;28;20064;-53
2023/02/28 11:05:24;;;;;;;13.35;8.45;;;;;;;6.80;51.77;96971.00;5067265;28;20098;-47
2023/02/28 11:07:53;;;;;;;14.95;9.98;;;;;;;6.58;52.22;96976.09;5066782;28;20076;-49
2023/02/28 11:10:23;;;;;;;15.07;9.90;;;;;;;7.30;50.74;96976.19;5067061;28;20067;-47
2023/02/28 11:12:55;;;;;;;13.27;8.27;;;;;;;7.97;50.51;96965.09;5068221;28;20552;-50
2023/02/28 11:15:29;;;;;;;18.85;11.30;;;;;;;7.83;49.50;96966.97;5068683;28;20080;-47
2023/02/28 11:17:58;;;;;;;17.02;9.30;;;;;;;8.00;49.87;96968.31;5069810;28;20083;-47
2023/02/28 11:20:30;;;;;;;15.77;9.30;;;;;;;9.16;47.03;96963.69;5064007;28;20085;-47
2023/02/28 11:23:00;;;;;;;12.23;9.60;;;;;;;8.25;49.49;96966.44;5064878;28;20079;-46
2023/02/28 11:25:31;;;;;;;15.27;8.52;;;;;;;7.92;48.37;96962.81;5062435;28;20072;-48
2023/02/28 11:28:01;;;;;;;16.95;11.73;;;;;;;8.88;47.05;96959.81;5065807;28;20080;-48
2023/02/28 11:30:34;;;;;;;14.27;9.43;;;;;;;8.19;48.84;96949.38;5060188;28;20560;-50
2023/02/28 11:33:28;;;;;;;14.60;11.15;;;;;;;7.95;48.10;96962.59;5064943;28;20076;-49
2023/02/28 11:36:00;;;;;;;14.70;11.10;;;;;;;8.61;47.65;96954.91;5065598;28;20082;-47
2023/02/28 11:38:28;;;;;;;16.13;11.02;;;;;;;8.32;47.70;96952.72;5062729;28;20084;-47
2023/02/28 11:41:09;;;;;;;14.05;9.18;;;;;;;10.04;45.99;96938.03;5061590;28;20080;-47
2023/02/28 11:43:47;;;;;;;13.85;9.85;;;;;;;9.68;45.27;96938.38;5065460;28;20107;-49
2023/02/28 11:46:23;;;;;;;12.68;8.23;;;;;;;8.37;47.59;96944.50;5063688;28;20076;-48
2023/02/28 11:48:58;;;;;;;15.27;9.88;;;;;;;8.09;47.22;96943.16;5066100;28;20084;-44
2023/02/28 11:51:32;;;;;;;16.35;11.80;;;;;;;7.92;48.17;96935.72;5065838;28;20445;-50